Time;durP1;ratioP1;P1;durP2;ratioP2;P2;SDS_P1;SDS_P2;PMS_P1;PMS_P2;Temp;Humidity;BMP_temperature;BMP_pressure;BME280_temperature;BME280_humidity;BME280_pressure;Samples;Min_cycle;Max_cycle;Signal;HPM_P1;HPM_P2
2023/05/25 00:01:18;;;;;;;;;;;12.60;99.90;;;;;;5022758;28;19981;-76
2023/05/25 00:03:45;;;;;;;;;;;12.60;99.90;;;;;;5026574;28;19925;-78
2023/05/25 00:06:12;;;;;;;;;;;12.50;99.90;;;;;;5021697;28;19933;-76
2023/05/25 00:08:39;;;;;;;;;;;12.60;99.90;;;;;;5023012;28;19941;-77
2023/05/25 00:11:06;;;;;;;;;;;12.60;99.90;;;;;;5025916;28;19932;-76
2023/05/25 00:13:33;;;;;;;;;;;12.50;99.90;;;;;;5021476;28;19932;-77
2023/05/25 00:16:02;;;;;;;;;;;12.50;99.90;;;;;;5022110;28;20007;-76
2023/05/25 00:18:28;;;;;;;;;;;12.50;99.90;;;;;;5023061;28;19933;-77
2023/05/25 00:20:55;;;;;;;;;;;12.50;99.90;;;;;;5020601;28;20473;-77
2023/05/25 00:23:22;;;;;;;;;;;12.50;99.90;;;;;;5018463;28;20416;-77
2023/05/25 00:25:49;;;;;;;;;;;12.50;99.90;;;;;;5023483;28;20649;-76
2023/05/25 00:28:16;;;;;;;;;;;12.50;99.90;;;;;;5016949;28;20359;-78
2023/05/25 00:30:43;;;;;;;;;;;12.50;99.90;;;;;;5034008;28;19932;-77
2023/05/25 00:33:11;;;;;;;;;;;12.40;99.90;;;;;;5019438;28;19929;-77
2023/05/25 00:35:38;;;;;;;;;;;12.40;99.90;;;;;;5018905;28;19929;-77
2023/05/25 00:38:05;;;;;;;;;;;12.40;99.90;;;;;;5018941;28;20461;-77
2023/05/25 00:40:32;;;;;;;;;;;12.40;99.90;;;;;;5038359;28;19975;-77
2023/05/25 00:43:00;;;;;;;;;;;12.40;99.90;;;;;;5021293;28;20408;-76
2023/05/25 00:45:26;;;;;;;;;;;12.40;99.90;;;;;;5020284;28;20391;-76
2023/05/25 00:47:54;;;;;;;;;;;12.40;99.90;;;;;;5019683;28;19932;-77
2023/05/25 00:50:30;;;;;;;;;;;12.40;99.90;;;;;;5020020;28;20307;-77
2023/05/25 00:52:57;;;;;;;;;;;12.40;99.90;;;;;;5022465;28;19925;-76
2023/05/25 00:55:28;;;;;;;;;;;12.30;99.90;;;;;;5020018;28;19971;-78
2023/05/25 00:57:57;;;;;;;;;;;12.30;99.90;;;;;;5023433;28;19925;-76
2023/05/25 01:00:24;;;;;;;;;;;12.30;99.90;;;;;;5019815;28;19933;-77
2023/05/25 01:02:55;;;;;;;;;;;12.30;99.90;;;;;;5018958;28;19991;-77
2023/05/25 01:05:27;;;;;;;;;;;12.30;99.90;;;;;;5038183;28;19986;-76
2023/05/25 01:07:55;;;;;;;;;;;;;;;;;;5020386;28;19954;-77
2023/05/25 01:10:24;;;;;;;;;;;12.30;99.90;;;;;;5022282;28;19933;-78
2023/05/25 01:12:53;;;;;;;;;;;12.20;99.90;;;;;;5018594;28;19933;-77
2023/05/25 01:15:20;;;;;;;;;;;12.20;99.90;;;;;;5020739;28;19933;-76
2023/05/25 01:17:52;;;;;;;;;;;12.20;99.90;;;;;;5019050;28;19980;-77
2023/05/25 01:20:19;;;;;;;;;;;12.20;99.90;;;;;;5029627;28;19925;-76
2023/05/25 01:22:52;;;;;;;;;;;12.20;99.90;;;;;;5022116;28;19931;-77
2023/05/25 01:25:22;;;;;;;;;;;12.20;99.90;;;;;;5021355;28;19929;-76
2023/05/25 01:27:51;;;;;;;;;;;12.20;99.90;;;;;;5032695;28;19936;-77
2023/05/25 01:30:19;;;;;;;;;;;12.20;99.90;;;;;;5017097;28;19925;-76
2023/05/25 01:32:46;;;;;;;;;;;12.20;99.90;;;;;;5037273;28;19925;-77
2023/05/25 01:35:13;;;;;;;;;;;12.20;99.90;;;;;;5018789;28;19925;-76
2023/05/25 01:37:45;;;;;;;;;;;12.10;99.90;;;;;;5018906;28;19941;-76
2023/05/25 01:40:14;;;;;;;;;;;12.10;99.90;;;;;;5021561;28;19925;-76
2023/05/25 01:42:41;;;;;;;;;;;12.10;99.90;;;;;;5021467;28;19952;-78
2023/05/25 01:45:09;;;;;;;;;;;12.10;99.90;;;;;;5023974;28;19925;-76
2023/05/25 01:47:40;;;;;;;;;;;12.10;99.90;;;;;;5019002;28;20032;-76
2023/05/25 01:50:11;;;;;;;;;;;12.10;99.90;;;;;;5036072;28;19933;-77
2023/05/25 01:52:41;;;;;;;;;;;12.10;99.90;;;;;;5022535;28;19983;-77
2023/05/25 01:55:12;;;;;;;;;;;12.10;99.90;;;;;;5020584;28;19933;-76
2023/05/25 01:57:42;;;;;;;;;;;12.10;99.90;;;;;;5033601;28;19933;-76
2023/05/25 02:00:10;;;;;;;;;;;12.10;99.90;;;;;;5021467;28;19929;-76
2023/05/25 02:02:44;;;;;;;;;;;12.00;99.90;;;;;;5020955;28;20346;-77
2023/05/25 02:05:11;;;;;;;;;;;12.00;99.90;;;;;;5022358;28;19925;-76
2023/05/25 02:07:38;;;;;;;;;;;12.00;99.90;;;;;;5039992;28;20411;-76
2023/05/25 02:10:05;;;;;;;;;;;12.00;99.90;;;;;;5039703;28;20392;-76
2023/05/25 02:12:32;;;;;;;;;;;12.00;99.90;;;;;;5019128;28;20020;-76
2023/05/25 02:15:00;;;;;;;;;;;12.00;99.90;;;;;;5041796;28;19929;-78
2023/05/25 02:17:28;;;;;;;;;;;12.00;99.90;;;;;;5024313;28;19956;-77
2023/05/25 02:19:55;;;;;;;;;;;12.00;99.90;;;;;;5025132;28;19929;-77
2023/05/25 02:22:23;;;;;;;;;;;12.00;99.90;;;;;;5021298;28;20616;-78
2023/05/25 02:24:49;;;;;;;;;;;12.00;99.90;;;;;;5023469;28;19933;-76
2023/05/25 02:27:16;;;;;;;;;;;12.00;99.90;;;;;;5021425;28;19929;-77
2023/05/25 02:29:44;;;;;;;;;;;11.90;99.90;;;;;;5038371;28;20048;-76
2023/05/25 02:32:12;;;;;;;;;;;11.90;99.90;;;;;;5015486;28;20391;-78
2023/05/25 02:34:39;;;;;;;;;;;11.90;99.90;;;;;;5023064;28;19936;-76
2023/05/25 02:37:07;;;;;;;;;;;11.90;99.90;;;;;;5022279;28;19925;-78
2023/05/25 02:39:33;;;;;;;;;;;11.90;99.90;;;;;;5038828;28;19933;-76
2023/05/25 02:42:01;;;;;;;;;;;11.90;99.90;;;;;;5023046;28;19932;-76
2023/05/25 02:44:28;;;;;;;;;;;11.90;99.90;;;;;;5039815;28;19929;-76
2023/05/25 02:46:55;;;;;;;;;;;11.80;99.90;;;;;;5016208;28;19929;-76
2023/05/25 02:49:24;;;;;;;;;;;11.80;99.90;;;;;;5026776;28;19976;-75
2023/05/25 02:51:51;;;;;;;;;;;11.80;99.90;;;;;;5044561;28;20288;-75
2023/05/25 02:54:18;;;;;;;;;;;11.80;99.90;;;;;;5025689;28;19933;-76
2023/05/25 02:56:45;;;;;;;;;;;11.80;99.90;;;;;;5040908;28;19929;-75
2023/05/25 02:59:14;;;;;;;;;;;11.80;99.90;;;;;;5024333;28;19932;-77
2023/05/25 03:01:41;;;;;;;;;;;11.80;99.90;;;;;;5041604;28;19929;-74
2023/05/25 03:04:08;;;;;;;;;;;11.80;99.90;;;;;;5020561;28;19929;-75
2023/05/25 03:06:38;;;;;;;;;;;11.80;99.90;;;;;;5024438;28;19932;-75
2023/05/25 03:09:09;;;;;;;;;;;11.80;99.90;;;;;;5016200;28;19952;-75
2023/05/25 03:11:39;;;;;;;;;;;11.80;99.90;;;;;;5025659;28;19929;-75
2023/05/25 03:14:06;;;;;;;;;;;11.80;99.90;;;;;;5022045;28;19933;-76
2023/05/25 03:16:35;;;;;;;;;;;11.80;99.90;;;;;;5027122;28;19980;-76
2023/05/25 03:19:04;;;;;;;;;;;11.70;99.90;;;;;;5021393;28;20422;-76
2023/05/25 03:21:32;;;;;;;;;;;11.70;99.90;;;;;;5014897;28;19929;-77
2023/05/25 03:24:01;;;;;;;;;;;11.70;99.90;;;;;;5024019;28;19932;-77
2023/05/25 03:26:28;;;;;;;;;;;11.70;99.90;;;;;;5023142;28;20426;-74
2023/05/25 03:28:55;;;;;;;;;;;11.70;99.90;;;;;;5020010;28;20311;-77
2023/05/25 03:31:22;;;;;;;;;;;11.70;99.90;;;;;;5004861;28;19933;-77
2023/05/25 03:33:49;;;;;;;;;;;11.70;99.90;;;;;;5021124;28;19929;-77
2023/05/25 03:36:17;;;;;;;;;;;11.60;99.90;;;;;;5022092;28;19963;-76
2023/05/25 03:38:44;;;;;;;;;;;11.70;99.90;;;;;;5022860;28;20326;-78
2023/05/25 03:41:13;;;;;;;;;;;11.60;99.90;;;;;;5021687;28;20486;-76
2023/05/25 03:43:40;;;;;;;;;;;11.60;99.90;;;;;;5012951;28;19925;-76
2023/05/25 03:46:10;;;;;;;;;;;11.60;99.90;;;;;;5034205;28;19925;-75
2023/05/25 03:48:37;;;;;;;;;;;11.60;99.90;;;;;;5018783;28;19932;-76
2023/05/25 03:51:04;;;;;;;;;;;11.60;99.90;;;;;;5017289;28;20033;-75
2023/05/25 03:53:31;;;;;;;;;;;11.60;99.90;;;;;;5019517;28;19936;-76
2023/05/25 03:55:59;;;;;;;;;;;11.60;99.90;;;;;;5018856;28;19975;-75
2023/05/25 03:58:27;;;;;;;;;;;11.60;99.90;;;;;;5033974;28;19933;-75
2023/05/25 04:00:55;;;;;;;;;;;11.60;99.90;;;;;;5017272;28;19928;-76
2023/05/25 04:03:22;;;;;;;;;;;11.60;99.90;;;;;;5019105;28;19946;-75
2023/05/25 04:05:48;;;;;;;;;;;11.50;99.90;;;;;;5013159;28;20319;-76
2023/05/25 04:08:16;;;;;;;;;;;11.50;99.90;;;;;;5022710;28;19929;-75
2023/05/25 04:10:44;;;;;;;;;;;11.50;99.90;;;;;;5023900;28;19933;-76
2023/05/25 04:13:11;;;;;;;;;;;11.50;99.90;;;;;;5024825;28;19965;-77
2023/05/25 04:15:39;;;;;;;;;;;11.50;99.90;;;;;;5020565;28;19933;-77
2023/05/25 04:18:13;;;;;;;;;;;11.50;99.90;;;;;;5021463;28;19932;-76
2023/05/25 04:20:41;;;;;;;;;;;11.60;99.90;;;;;;5038822;28;19929;-78
2023/05/25 04:23:11;;;;;;;;;;;11.50;99.90;;;;;;5040844;28;19983;-77
2023/05/25 04:25:40;;;;;;;;;;;11.50;99.90;;;;;;5023533;28;19929;-77
2023/05/25 04:28:07;;;;;;;;;;;11.50;99.90;;;;;;5023574;28;20024;-78
2023/05/25 04:31:08;;;;;;;;;;;11.50;99.90;;;;;;5004624;28;19924;-77
2023/05/25 04:33:58;;;;;;;;;;;11.50;99.90;;;;;;5013439;28;19932;-77
2023/05/25 04:36:31;;;;;;;;;;;11.50;99.90;;;;;;5038584;28;19987;-76
2023/05/25 04:39:03;;;;;;;;;;;11.50;99.90;;;;;;5023774;28;19933;-77
2023/05/25 04:41:30;;;;;;;;;;;11.50;99.90;;;;;;5019825;28;19972;-77
2023/05/25 04:44:02;;;;;;;;;;;11.40;99.90;;;;;;5036699;28;20059;-77
2023/05/25 04:46:31;;;;;;;;;;;11.50;99.90;;;;;;5020827;28;20387;-77
2023/05/25 04:48:58;;;;;;;;;;;11.40;99.90;;;;;;5024156;28;19925;-77
2023/05/25 04:51:25;;;;;;;;;;;11.50;99.90;;;;;;5020002;28;19996;-77
2023/05/25 04:53:53;;;;;;;;;;;11.40;99.90;;;;;;5022897;28;19933;-75
2023/05/25 04:56:21;;;;;;;;;;;11.40;99.90;;;;;;5020504;28;20161;-77
2023/05/25 04:58:47;;;;;;;;;;;11.40;99.90;;;;;;5040926;28;19975;-76
2023/05/25 05:01:15;;;;;;;;;;;11.50;99.90;;;;;;5038251;28;20449;-75
2023/05/25 05:03:43;;;;;;;;;;;11.40;99.90;;;;;;5019074;28;19944;-75
2023/05/25 05:06:10;;;;;;;;;;;11.40;99.90;;;;;;5036590;28;20388;-76
2023/05/25 05:08:38;;;;;;;;;;;11.40;99.90;;;;;;5023338;28;19925;-76
2023/05/25 05:11:05;;;;;;;;;;;11.40;99.90;;;;;;5038123;28;19932;-76
2023/05/25 05:13:32;;;;;;;;;;;11.40;99.90;;;;;;5026087;28;19925;-75
2023/05/25 05:15:59;;;;;;;;;;;11.40;99.90;;;;;;5040011;28;20383;-78
2023/05/25 05:18:27;;;;;;;;;;;11.40;99.90;;;;;;5023280;28;20603;-76
2023/05/25 05:20:56;;;;;;;;;;;11.40;99.90;;;;;;5024887;28;19925;-77
2023/05/25 05:23:23;;;;;;;;;;;11.40;99.90;;;;;;5027391;28;19929;-76
2023/05/25 05:25:50;;;;;;;;;;;11.40;99.90;;;;;;5026762;28;19932;-76
2023/05/25 05:28:17;;;;;;;;;;;11.40;99.90;;;;;;5040739;28;20316;-77
2023/05/25 05:30:46;;;;;;;;;;;11.40;99.90;;;;;;5044890;28;19939;-78
2023/05/25 05:33:13;;;;;;;;;;;11.40;99.90;;;;;;5027604;28;19925;-78
2023/05/25 05:35:45;;;;;;;;;;;11.40;99.90;;;;;;5027421;28;19929;-82
2023/05/25 05:38:18;;;;;;;;;;;11.40;99.90;;;;;;5045904;28;19975;-78
2023/05/25 05:40:45;;;;;;;;;;;11.40;99.90;;;;;;5048322;28;19933;-78
2023/05/25 05:43:13;;;;;;;;;;;11.40;99.90;;;;;;5028697;28;19988;-78
2023/05/25 05:45:40;;;;;;;;;;;11.40;99.90;;;;;;5049768;28;19976;-79
2023/05/25 05:48:09;;;;;;;;;;;11.40;99.90;;;;;;5031946;28;19925;-78
2023/05/25 05:50:36;;;;;;;;;;;11.40;99.90;;;;;;5051279;28;19947;-81
2023/05/25 05:53:03;;;;;;;;;;;11.40;99.90;;;;;;5050110;28;20461;-79
2023/05/25 05:55:31;;;;;;;;;;;11.40;99.90;;;;;;5033133;28;19964;-79
2023/05/25 05:57:58;;;;;;;;;;;11.40;99.90;;;;;;5030250;28;19932;-78
2023/05/25 06:00:25;;;;;;;;;;;11.40;99.90;;;;;;5033493;28;19935;-79
2023/05/25 06:02:52;;;;;;;;;;;11.40;99.90;;;;;;5045554;28;19929;-79
2023/05/25 06:05:22;;;;;;;;;;;11.50;99.90;;;;;;5037564;28;19933;-80
2023/05/25 06:07:49;;;;;;;;;;;11.50;99.90;;;;;;5031431;28;20291;-79
2023/05/25 06:10:18;;;;;;;;;;;11.50;99.90;;;;;;5028481;28;19933;-78
2023/05/25 06:12:47;;;;;;;;;;;11.50;99.90;;;;;;5034050;28;20023;-79
2023/05/25 06:15:14;;;;;;;;;;;11.50;99.90;;;;;;5030985;28;19936;-78
2023/05/25 06:17:42;;;;;;;;;;;11.50;99.90;;;;;;5029613;28;19932;-78
2023/05/25 06:20:11;;;;;;;;;;;11.50;99.90;;;;;;5046429;28;19929;-78
2023/05/25 06:22:37;;;;;;;;;;;11.50;99.90;;;;;;5030279;28;19925;-78
2023/05/25 06:25:05;;;;;;;;;;;11.50;99.90;;;;;;5034199;28;19925;-80
2023/05/25 06:27:33;;;;;;;;;;;11.50;99.90;;;;;;5030843;28;19925;-78
2023/05/25 06:30:03;;;;;;;;;;;11.50;99.90;;;;;;5026899;28;19932;-79
2023/05/25 06:32:30;;;;;;;;;;;11.50;99.90;;;;;;5029892;28;19929;-79
2023/05/25 06:35:01;;;;;;;;;;;11.50;99.90;;;;;;5033003;28;19931;-80
2023/05/25 06:37:34;;;;;;;;;;;11.50;99.90;;;;;;5033263;28;19925;-80
2023/05/25 06:40:05;;;;;;;;;;;11.50;99.90;;;;;;5029071;28;20427;-80
2023/05/25 06:42:33;;;;;;;;;;;11.50;99.90;;;;;;5033986;28;19929;-79
2023/05/25 06:45:04;;;;;;;;;;;11.50;99.90;;;;;;5032239;28;19925;-79
2023/05/25 06:47:33;;;;;;;;;;;11.50;99.90;;;;;;5032439;28;19951;-79
2023/05/25 06:50:01;;;;;;;;;;;11.50;99.90;;;;;;5030778;28;19933;-80
2023/05/25 06:52:28;;;;;;;;;;;11.60;99.90;;;;;;5032410;28;20413;-78
2023/05/25 06:54:58;;;;;;;;;;;11.60;99.90;;;;;;5030987;28;19931;-79
2023/05/25 06:57:25;;;;;;;;;;;11.60;99.90;;;;;;5032908;28;20015;-79
2023/05/25 06:59:53;;;;;;;;;;;11.60;99.90;;;;;;5027309;28;19952;-79
2023/05/25 07:02:21;;;;;;;;;;;11.60;99.90;;;;;;5029796;28;20004;-79
2023/05/25 07:04:48;;;;;;;;;;;11.60;99.90;;;;;;5025467;28;19925;-79
2023/05/25 07:07:15;;;;;;;;;;;11.60;99.90;;;;;;5046269;28;20299;-78
2023/05/25 07:09:42;;;;;;;;;;;11.70;99.90;;;;;;5046158;28;19975;-79
2023/05/25 07:12:13;;;;;;;;;;;11.70;99.90;;;;;;5033470;28;20300;-79
2023/05/25 07:14:47;;;;;;;;;;;11.70;99.90;;;;;;5031935;28;19925;-79
2023/05/25 07:17:17;;;;;;;;;;;11.70;99.90;;;;;;5031272;28;19929;-80
2023/05/25 07:19:52;;;;;;;;;;;11.70;99.90;;;;;;5033686;28;20449;-80
2023/05/25 07:22:22;;;;;;;;;;;11.80;99.90;;;;;;5030718;28;20380;-79
2023/05/25 07:24:50;;;;;;;;;;;11.70;99.90;;;;;;5030206;28;19925;-81
2023/05/25 07:27:18;;;;;;;;;;;11.80;99.90;;;;;;5030462;28;20357;-78
2023/05/25 07:29:47;;;;;;;;;;;11.80;99.90;;;;;;5030499;28;19929;-79
2023/05/25 07:32:15;;;;;;;;;;;11.80;99.90;;;;;;5031258;28;19948;-79
2023/05/25 07:34:53;;;;;;;;;;;11.80;99.90;;;;;;5031825;28;20346;-79
2023/05/25 07:37:26;;;;;;;;;;;11.90;99.90;;;;;;5030975;28;19933;-79
2023/05/25 07:39:54;;;;;;;;;;;11.90;99.90;;;;;;5030135;28;20146;-78
2023/05/25 07:42:21;;;;;;;;;;;11.90;99.90;;;;;;5031129;28;19979;-80
2023/05/25 07:44:52;;;;;;;;;;;11.90;99.90;;;;;;5029821;28;20390;-78
2023/05/25 07:47:20;;;;;;;;;;;11.90;99.90;;;;;;5032896;28;19948;-78
2023/05/25 07:49:46;;;;;;;;;;;12.00;99.90;;;;;;5029257;28;20407;-80
2023/05/25 07:52:14;;;;;;;;;;;12.00;99.90;;;;;;5032168;28;20021;-79
2023/05/25 07:54:44;;;;;;;;;;;12.00;99.90;;;;;;5026915;28;19932;-79
2023/05/25 07:57:12;;;;;;;;;;;12.00;99.90;;;;;;5037149;28;19933;-79
2023/05/25 07:59:39;;;;;;;;;;;12.00;99.90;;;;;;5028174;28;20040;-79
2023/05/25 08:02:09;;;;;;;;;;;12.00;99.90;;;;;;5029566;28;19931;-79
2023/05/25 08:04:39;;;;;;;;;;;12.10;99.90;;;;;;5043187;28;19936;-78
2023/05/25 08:07:06;;;;;;;;;;;12.10;99.90;;;;;;5022059;28;20019;-78
2023/05/25 08:09:33;;;;;;;;;;;12.10;99.90;;;;;;5027673;28;19929;-78
2023/05/25 08:12:02;;;;;;;;;;;12.10;99.90;;;;;;5024336;28;20304;-79
2023/05/25 08:14:28;;;;;;;;;;;12.10;99.90;;;;;;5025381;28;19929;-79
2023/05/25 08:16:55;;;;;;;;;;;12.20;99.90;;;;;;5026279;28;19925;-78
2023/05/25 08:19:22;;;;;;;;;;;12.20;99.90;;;;;;5026632;28;19925;-79
2023/05/25 08:21:50;;;;;;;;;;;12.20;99.90;;;;;;5027033;28;20023;-78
2023/05/25 08:24:17;;;;;;;;;;;12.20;99.90;;;;;;5024114;28;19925;-78
2023/05/25 08:26:46;;;;;;;;;;;12.20;99.90;;;;;;5024968;28;19929;-78
2023/05/25 08:29:14;;;;;;;;;;;12.30;99.90;;;;;;5025208;28;20383;-77
2023/05/25 08:31:44;;;;;;;;;;;12.30;99.90;;;;;;5024320;28;19979;-78
2023/05/25 08:34:11;;;;;;;;;;;12.30;99.90;;;;;;5023243;28;20023;-77
2023/05/25 08:36:40;;;;;;;;;;;12.30;99.90;;;;;;5027845;28;20344;-77
2023/05/25 08:39:08;;;;;;;;;;;12.30;99.90;;;;;;5025575;28;19932;-77
2023/05/25 08:41:35;;;;;;;;;;;12.40;99.90;;;;;;5040108;28;19935;-79
2023/05/25 08:44:05;;;;;;;;;;;12.40;99.90;;;;;;5025309;28;19929;-78
2023/05/25 08:46:33;;;;;;;;;;;12.40;99.90;;;;;;5024098;28;19929;-78
2023/05/25 08:49:04;;;;;;;;;;;12.50;99.90;;;;;;5025995;28;19933;-78
2023/05/25 08:51:35;;;;;;;;;;;12.50;99.90;;;;;;5015061;28;19929;-77
2023/05/25 08:54:07;;;;;;;;;;;12.50;99.90;;;;;;5021319;28;19925;-78
2023/05/25 08:56:36;;;;;;;;;;;12.60;99.90;;;;;;5027080;28;20459;-77
2023/05/25 08:59:08;;;;;;;;;;;12.60;99.90;;;;;;5023792;28;20455;-77
2023/05/25 09:01:39;;;;;;;;;;;12.60;99.90;;;;;;5021580;28;20347;-78
2023/05/25 09:04:06;;;;;;;;;;;12.60;99.90;;;;;;5021942;28;20346;-79
2023/05/25 09:06:35;;;;;;;;;;;12.70;99.90;;;;;;5023336;28;19979;-77
2023/05/25 09:09:03;;;;;;;;;;;12.70;99.90;;;;;;5025235;28;19929;-78
2023/05/25 09:11:31;;;;;;;;;;;12.70;99.90;;;;;;5040363;28;20216;-80
2023/05/25 09:13:58;;;;;;;;;;;12.70;99.90;;;;;;5031356;28;20012;-78
2023/05/25 09:16:25;;;;;;;;;;;12.80;99.90;;;;;;5028334;28;19929;-78
2023/05/25 09:18:54;;;;;;;;;;;12.80;99.90;;;;;;5027788;28;19925;-78
2023/05/25 09:21:21;;;;;;;;;;;12.80;99.90;;;;;;5033335;28;20036;-79
2023/05/25 09:23:48;;;;;;;;;;;12.90;99.90;;;;;;5029252;28;19932;-78
2023/05/25 09:26:18;;;;;;;;;;;12.90;99.90;;;;;;5030382;28;19929;-78
2023/05/25 09:28:46;;;;;;;;;;;12.90;99.90;;;;;;5031679;28;19932;-78
2023/05/25 09:31:13;;;;;;;;;;;12.90;99.90;;;;;;5031033;28;19972;-78
2023/05/25 09:33:40;;;;;;;;;;;13.00;99.90;;;;;;5029444;28;19933;-79
2023/05/25 09:36:08;;;;;;;;;;;13.00;99.90;;;;;;5029402;28;19929;-78
2023/05/25 09:38:36;;;;;;;;;;;13.00;99.90;;;;;;5028534;28;19932;-78
2023/05/25 09:41:03;;;;;;;;;;;13.10;99.90;;;;;;5030209;28;19971;-78
2023/05/25 09:43:31;;;;;;;;;;;13.10;99.90;;;;;;5028724;28;19933;-78
2023/05/25 09:45:58;;;;;;;;;;;13.10;99.90;;;;;;5026808;28;20018;-78
2023/05/25 09:48:25;;;;;;;;;;;13.10;99.90;;;;;;5028474;28;20008;-78
2023/05/25 09:50:52;;;;;;;;;;;13.20;99.90;;;;;;5030178;28;19952;-78
2023/05/25 09:53:20;;;;;;;;;;;13.20;99.90;;;;;;5026787;28;20409;-79
2023/05/25 09:55:48;;;;;;;;;;;13.20;99.90;;;;;;5043136;28;20306;-78
2023/05/25 09:58:15;;;;;;;;;;;13.30;99.90;;;;;;5034357;28;20415;-79
2023/05/25 10:00:42;;;;;;;;;;;13.30;99.90;;;;;;5030838;28;19940;-78
2023/05/25 10:03:13;;;;;;;;;;;13.30;99.90;;;;;;5042349;28;19926;-79
2023/05/25 10:05:41;;;;;;;;;;;13.30;99.90;;;;;;5029019;28;19940;-77
2023/05/25 10:08:10;;;;;;;;;;;13.40;99.90;;;;;;5036285;28;19924;-78
2023/05/25 10:10:39;;;;;;;;;;;13.40;99.90;;;;;;5027319;28;19947;-78
2023/05/25 10:13:07;;;;;;;;;;;13.40;99.90;;;;;;5029707;28;19929;-78
2023/05/25 10:15:35;;;;;;;;;;;13.40;99.90;;;;;;5029550;28;19925;-78
2023/05/25 10:18:02;;;;;;;;;;;13.50;99.90;;;;;;5027054;28;21711;-77
2023/05/25 10:20:29;;;;;;;;;;;13.50;99.90;;;;;;5028124;28;19933;-78
2023/05/25 10:23:00;;;;;;;;;;;13.60;99.90;;;;;;5029969;28;19936;-78
2023/05/25 10:25:28;;;;;;;;;;;13.60;99.90;;;;;;5029035;28;19924;-80
2023/05/25 10:27:59;;;;;;;;;;;13.60;99.90;;;;;;5031925;28;19999;-80
2023/05/25 10:30:26;;;;;;;;;;;13.70;99.90;;;;;;5028849;28;20020;-79
2023/05/25 10:32:54;;;;;;;;;;;13.70;99.90;;;;;;5031070;28;19929;-79
2023/05/25 10:35:21;;;;;;;;;;;13.70;99.90;;;;;;5030672;28;19987;-79
2023/05/25 10:37:51;;;;;;;;;;;13.70;99.90;;;;;;5023736;28;20303;-79
2023/05/25 10:40:19;;;;;;;;;;;13.70;99.90;;;;;;5031626;28;20043;-79
2023/05/25 10:42:46;;;;;;;;;;;13.70;99.90;;;;;;5027442;28;19936;-80
2023/05/25 10:45:17;;;;;;;;;;;13.80;99.90;;;;;;5035438;28;19926;-81
2023/05/25 10:47:46;;;;;;;;;;;13.80;99.90;;;;;;5031124;28;20356;-79
2023/05/25 10:50:19;;;;;;;;;;;13.90;99.90;;;;;;5036504;28;19925;-80
2023/05/25 10:52:46;;;;;;;;;;;13.90;99.90;;;;;;5033785;28;19988;-81
2023/05/25 10:55:14;;;;;;;;;;;13.90;99.90;;;;;;5038776;28;19925;-79
2023/05/25 10:57:41;;;;;;;;;;;13.90;99.90;;;;;;5025963;28;19931;-80
2023/05/25 11:00:09;;;;;;;;;;;14.00;99.90;;;;;;5029468;28;19929;-79
2023/05/25 11:02:50;;;;;;;;;;;14.00;99.90;;;;;;5028547;28;19933;-77
2023/05/25 11:05:30;;;;;;;;;;;14.10;99.90;;;;;;5027782;28;19979;-78
2023/05/25 11:07:58;;;;;;;;;;;14.10;99.90;;;;;;5021932;28;19925;-79
2023/05/25 11:10:44;;;;;;;;;;;14.10;99.90;;;;;;5029197;28;19929;-78
2023/05/25 11:13:32;;;;;;;;;;;14.20;99.90;;;;;;5024422;28;20024;-78
2023/05/25 11:16:08;;;;;;;;;;;14.20;99.90;;;;;;5036280;28;20040;-78
2023/05/25 11:18:40;;;;;;;;;;;14.20;99.90;;;;;;5028933;28;21608;-78
2023/05/25 11:21:11;;;;;;;;;;;14.30;99.90;;;;;;5029478;28;19928;-79
2023/05/25 11:23:39;;;;;;;;;;;14.30;99.90;;;;;;5024439;28;19931;-78
2023/05/25 11:26:06;;;;;;;;;;;14.40;99.90;;;;;;5030846;28;20004;-79
2023/05/25 11:28:33;;;;;;;;;;;14.40;99.90;;;;;;5026235;28;19929;-79
2023/05/25 11:31:03;;;;;;;;;;;14.40;99.90;;;;;;5026014;28;19986;-79
2023/05/25 11:33:29;;;;;;;;;;;14.40;99.90;;;;;;5022068;28;19964;-78
2023/05/25 11:35:58;;;;;;;;;;;14.50;99.90;;;;;;5045220;28;19925;-77
2023/05/25 11:38:26;;;;;;;;;;;14.60;99.90;;;;;;5028035;28;20701;-76
2023/05/25 11:40:53;;;;;;;;;;;14.60;99.90;;;;;;5025591;28;19925;-76
2023/05/25 11:43:20;;;;;;;;;;;14.60;99.90;;;;;;5030266;28;20375;-77
2023/05/25 11:45:55;;;;;;;;;;;14.60;99.90;;;;;;5032277;28;19933;-77
2023/05/25 11:48:22;;;;;;;;;;;14.60;99.90;;;;;;5027811;28;20008;-77
2023/05/25 11:53:45;;;;;;;;;;;14.70;99.90;;;;;;5111681;27;19912;-75
2023/05/25 11:56:13;;;;;;;;;;;14.70;99.90;;;;;;5085835;28;19971;-75
2023/05/25 11:58:40;;;;;;;;;;;14.80;99.90;;;;;;5080397;28;20047;-75
2023/05/25 12:01:14;;;;;;;;;;;14.80;99.90;;;;;;5084084;28;19924;-75
2023/05/25 12:03:43;;;;;;;;;;;14.80;99.90;;;;;;5085592;28;19939;-76
2023/05/25 12:06:23;;;;;;;;;;;14.90;99.90;;;;;;5085403;28;20379;-75
2023/05/25 12:08:51;;;;;;;;;;;14.90;99.90;;;;;;5097340;28;19931;-75
2023/05/25 12:11:18;;;;;;;;;;;15.00;99.90;;;;;;5088742;28;19924;-76
2023/05/25 12:13:45;;;;;;;;;;;15.00;99.90;;;;;;5082502;28;19993;-75
2023/05/25 12:16:12;;;;;;;;;;;15.00;99.90;;;;;;5100598;28;19924;-75
2023/05/25 12:18:41;;;;;;;;;;;15.10;99.90;;;;;;5086229;28;19956;-75
2023/05/25 12:21:09;;;;;;;;;;;15.20;99.90;;;;;;5081576;28;19924;-75
2023/05/25 12:23:37;;;;;;;;;;;15.20;99.90;;;;;;5085041;28;20374;-74
2023/05/25 12:26:11;;;;;;;;;;;15.20;99.90;;;;;;5084401;28;20021;-75
2023/05/25 12:28:37;;;;;;;;;;;15.30;99.90;;;;;;5082030;28;19963;-75
2023/05/25 12:31:21;;;;;;;;;;;15.30;99.90;;;;;;5085691;28;19928;-76
2023/05/25 12:34:02;;;;;;;;;;;15.30;99.90;;;;;;5099811;28;19924;-74
2023/05/25 12:36:52;;;;;;;;;;;15.40;99.90;;;;;;5081213;28;19935;-78
2023/05/25 12:39:33;;;;;;;;;;;15.40;99.90;;;;;;5070306;28;19928;-75
2023/05/25 12:42:02;;;;;;;;;;;15.50;99.90;;;;;;5085585;28;20346;-76
2023/05/25 12:44:30;;;;;;;;;;;15.50;99.90;;;;;;5102252;28;20027;-75
2023/05/25 12:46:57;;;;;;;;;;;15.50;99.90;;;;;;5088447;28;19954;-75
2023/05/25 12:49:29;;;;;;;;;;;15.60;99.90;;;;;;5086256;28;19928;-75
2023/05/25 12:51:56;;;;;;;;;;;15.60;99.90;;;;;;5084828;28;20015;-75
2023/05/25 12:54:50;;;;;;;;;;;15.70;99.90;;;;;;5085900;28;19924;-76
2023/05/25 12:57:18;;;;;;;;;;;15.80;99.90;;;;;;5040013;28;19985;-75
2023/05/25 12:59:46;;;;;;;;;;;15.90;99.90;;;;;;5083965;28;19928;-75
2023/05/25 13:02:14;;;;;;;;;;;16.20;99.90;;;;;;5083571;28;19952;-76
2023/05/25 13:04:41;;;;;;;;;;;16.30;99.90;;;;;;5070787;28;19980;-77
2023/05/25 13:07:08;;;;;;;;;;;16.50;99.90;;;;;;5071978;28;19955;-76
2023/05/25 13:09:36;;;;;;;;;;;16.50;99.90;;;;;;5071213;28;20153;-77
2023/05/25 13:12:03;;;;;;;;;;;16.40;99.90;;;;;;5066249;28;19970;-76
2023/05/25 13:14:31;;;;;;;;;;;16.40;99.90;;;;;;5071192;28;19925;-76
2023/05/25 13:16:58;;;;;;;;;;;16.40;99.90;;;;;;5070708;28;20023;-76
2023/05/25 13:19:25;;;;;;;;;;;16.40;99.90;;;;;;5089410;28;19978;-76
2023/05/25 13:21:54;;;;;;;;;;;16.40;99.90;;;;;;5068015;28;20379;-76
2023/05/25 13:24:21;;;;;;;;;;;16.40;99.90;;;;;;5070512;28;19971;-77
2023/05/25 13:26:49;;;;;;;;;;;16.40;99.90;;;;;;5068582;28;19931;-76
2023/05/25 13:29:16;;;;;;;;;;;16.60;99.90;;;;;;5071348;28;19924;-78
2023/05/25 13:31:44;;;;;;;;;;;16.70;99.90;;;;;;5067027;28;19925;-78
2023/05/25 13:34:12;;;;;;;;;;;16.70;99.90;;;;;;5071067;28;20104;-75
2023/05/25 13:36:39;;;;;;;;;;;16.70;99.90;;;;;;5070499;28;20027;-75
2023/05/25 13:39:09;;;;;;;;;;;16.70;99.90;;;;;;5073116;28;20337;-76
2023/05/25 13:41:36;;;;;;;;;;;16.70;99.90;;;;;;5073263;28;20050;-76
2023/05/25 13:44:03;;;;;;;;;;;16.80;99.90;;;;;;5086718;28;19970;-75
2023/05/25 13:46:29;;;;;;;;;;;16.80;99.90;;;;;;5087363;28;19977;-75
2023/05/25 13:48:58;;;;;;;;;;;16.80;99.90;;;;;;5072249;28;20011;-76
2023/05/25 13:51:25;;;;;;;;;;;16.90;99.90;;;;;;5071306;28;19960;-75
2023/05/25 13:53:52;;;;;;;;;;;17.00;99.90;;;;;;5067498;28;20402;-76
2023/05/25 13:56:19;;;;;;;;;;;17.00;99.90;;;;;;5069341;28;19924;-75
2023/05/25 13:58:46;;;;;;;;;;;17.00;99.90;;;;;;5063110;28;19990;-76
2023/05/25 14:01:13;;;;;;;;;;;17.10;99.90;;;;;;5073399;28;19925;-75
2023/05/25 14:03:39;;;;;;;;;;;17.20;99.90;;;;;;5065252;28;19963;-77
2023/05/25 14:06:08;;;;;;;;;;;17.20;99.90;;;;;;5067210;28;19940;-76
2023/05/25 14:08:34;;;;;;;;;;;17.30;99.90;;;;;;5066757;28;20003;-76
2023/05/25 14:11:01;;;;;;;;;;;17.30;99.90;;;;;;5071795;28;19932;-76
2023/05/25 14:13:28;;;;;;;;;;;17.30;99.90;;;;;;5066506;28;19924;-76
2023/05/25 14:15:55;;;;;;;;;;;17.40;99.90;;;;;;5073829;28;19932;-75
2023/05/25 14:18:22;;;;;;;;;;;17.50;99.90;;;;;;5066943;28;19924;-76
2023/05/25 14:20:49;;;;;;;;;;;17.40;99.90;;;;;;5068308;28;19932;-76
2023/05/25 14:23:18;;;;;;;;;;;17.50;99.90;;;;;;5065647;28;19972;-76
2023/05/25 14:25:45;;;;;;;;;;;17.50;99.90;;;;;;5068102;28;19934;-76
2023/05/25 14:28:11;;;;;;;;;;;17.50;99.90;;;;;;5066162;28;19938;-76
2023/05/25 14:30:38;;;;;;;;;;;17.60;99.90;;;;;;5066217;28;20370;-75